createdAt,value
2017-03-29T00:00:27.421Z,1003.24
2017-03-29T00:01:27.450Z,1003.26
2017-03-29T00:02:27.478Z,1003.26
2017-03-29T00:03:27.502Z,1003.25
2017-03-29T00:04:27.532Z,1003.23
2017-03-29T00:05:27.559Z,1003.26
2017-03-29T00:06:27.590Z,1003.26
2017-03-29T00:07:27.618Z,1003.24
2017-03-29T00:08:27.647Z,1003.23
2017-03-29T00:09:27.671Z,1003.26
2017-03-29T00:10:27.700Z,1003.25
2017-03-29T00:11:27.729Z,1003.22
2017-03-29T00:12:27.758Z,1003.2
2017-03-29T00:13:27.785Z,1003.19
2017-03-29T00:14:27.815Z,1003.19
2017-03-29T00:15:27.840Z,1003.18
2017-03-29T00:16:27.868Z,1003.2
2017-03-29T00:17:27.920Z,1003.16
2017-03-29T00:18:27.926Z,1003.17
2017-03-29T00:19:27.954Z,1003.2
2017-03-29T00:20:27.980Z,1003.18
2017-03-29T00:21:28.015Z,1003.21
2017-03-29T00:22:28.038Z,1003.16
2017-03-29T00:23:28.067Z,1003.15
2017-03-29T00:24:28.118Z,1003.15
2017-03-29T00:25:28.125Z,1003.17
2017-03-29T00:26:28.155Z,1003.14
2017-03-29T00:27:28.180Z,1003.15
2017-03-29T00:28:28.204Z,1003.11
2017-03-29T00:29:28.230Z,1003.09
2017-03-29T00:30:28.262Z,1003.1
2017-03-29T00:31:28.291Z,1003.13
2017-03-29T00:32:28.317Z,1003.13
2017-03-29T00:33:28.349Z,1003.12
2017-03-29T00:34:28.375Z,1003.13
2017-03-29T00:35:28.402Z,1003.12
2017-03-29T00:36:28.432Z,1003.14
2017-03-29T00:37:28.463Z,1003.13
2017-03-29T00:38:28.488Z,1003.12
2017-03-29T00:39:28.517Z,1003.12
2017-03-29T00:40:28.547Z,1003.15
2017-03-29T00:41:28.571Z,1003.17
2017-03-29T00:42:28.601Z,1003.16
2017-03-29T00:43:28.629Z,1003.15
2017-03-29T00:44:28.658Z,1003.14
2017-03-29T00:45:28.686Z,1003.15
2017-03-29T00:46:28.711Z,1003.15
2017-03-29T00:47:28.740Z,1003.17
2017-03-29T00:48:28.769Z,1003.21
2017-03-29T00:49:28.798Z,1003.19
2017-03-29T00:50:28.827Z,1003.23
2017-03-29T00:51:29.108Z,1003.24
2017-03-29T00:52:28.883Z,1003.26
2017-03-29T00:53:28.904Z,1003.24
2017-03-29T00:54:28.938Z,1003.24
2017-03-29T00:55:28.966Z,1003.27
2017-03-29T00:56:29.242Z,1003.25
2017-03-29T00:57:29.043Z,1003.23
2017-03-29T00:58:29.061Z,1003.3
2017-03-29T00:59:29.080Z,1003.28
2017-03-29T01:00:29.117Z,1003.31
2017-03-29T01:01:29.398Z,1003.28
2017-03-29T01:02:29.162Z,1003.28
2017-03-29T01:03:29.199Z,1003.25
2017-03-29T01:04:29.218Z,1003.32
2017-03-29T01:05:29.245Z,1003.28
2017-03-29T01:06:29.526Z,1003.27
2017-03-29T01:07:29.308Z,1003.27
2017-03-29T01:08:29.340Z,1003.26
2017-03-29T01:09:29.358Z,1003.25
2017-03-29T01:10:29.386Z,1003.27
2017-03-29T01:11:29.662Z,1003.26
2017-03-29T01:12:29.442Z,1003.3
2017-03-29T01:13:29.467Z,1003.32
2017-03-29T01:14:29.501Z,1003.33
2017-03-29T01:15:29.524Z,1003.29
2017-03-29T01:16:29.800Z,1003.37
2017-03-29T01:17:29.583Z,1003.35
2017-03-29T01:18:29.611Z,1003.32
2017-03-29T01:19:29.636Z,1003.31
2017-03-29T01:20:29.668Z,1003.32
2017-03-29T01:21:29.695Z,1003.32
2017-03-29T01:22:29.723Z,1003.37
2017-03-29T01:23:29.748Z,1003.32
2017-03-29T01:24:29.776Z,1003.35
2017-03-29T01:25:29.804Z,1003.39
2017-03-29T01:26:29.834Z,1003.37
2017-03-29T01:27:29.863Z,1003.41
2017-03-29T01:28:29.886Z,1003.39
2017-03-29T01:29:29.919Z,1003.37
2017-03-29T01:30:29.944Z,1003.37
2017-03-29T01:31:29.972Z,1003.39
2017-03-29T01:32:30.001Z,1003.38
2017-03-29T01:33:30.026Z,1003.37
2017-03-29T01:34:30.056Z,1003.32
2017-03-29T01:35:30.086Z,1003.36
2017-03-29T01:36:30.114Z,1003.32
2017-03-29T01:37:30.142Z,1003.29
2017-03-29T01:38:30.162Z,1003.29
2017-03-29T01:39:30.193Z,1003.31
2017-03-29T01:40:30.225Z,1003.28
2017-03-29T01:41:30.255Z,1003.34
2017-03-29T01:42:30.282Z,1003.31
2017-03-29T01:43:30.305Z,1003.32
2017-03-29T01:44:30.341Z,1003.35
2017-03-29T01:45:30.364Z,1003.35
2017-03-29T01:46:30.393Z,1003.34
2017-03-29T01:47:30.422Z,1003.37
2017-03-29T01:48:30.442Z,1003.34
2017-03-29T01:49:30.474Z,1003.31
2017-03-29T01:50:30.508Z,1003.33
2017-03-29T01:51:30.532Z,1003.32
2017-03-29T01:52:30.556Z,1003.28
2017-03-29T01:53:30.585Z,1003.34
2017-03-29T01:54:30.616Z,1003.34
2017-03-29T01:55:30.644Z,1003.35
2017-03-29T01:56:30.668Z,1003.35
2017-03-29T01:57:30.696Z,1003.33
2017-03-29T01:58:30.726Z,1003.3
2017-03-29T01:59:30.755Z,1003.31
2017-03-29T02:00:30.783Z,1003.28
2017-03-29T02:01:30.808Z,1003.38
2017-03-29T02:02:30.837Z,1003.34
2017-03-29T02:03:30.866Z,1003.37
2017-03-29T02:04:30.895Z,1003.37
2017-03-29T02:05:30.920Z,1003.39
2017-03-29T02:06:30.948Z,1003.4
2017-03-29T02:07:30.977Z,1003.44
2017-03-29T02:08:31.006Z,1003.45
2017-03-29T02:09:31.031Z,1003.48
2017-03-29T02:10:31.059Z,1003.47
2017-03-29T02:11:31.084Z,1003.47
2017-03-29T02:12:31.115Z,1003.45
2017-03-29T02:13:31.145Z,1003.43
2017-03-29T02:14:31.171Z,1003.43
2017-03-29T02:15:31.223Z,1003.4
2017-03-29T02:16:31.228Z,1003.42
2017-03-29T02:17:31.252Z,1003.39
2017-03-29T02:18:31.281Z,1003.37
2017-03-29T02:19:31.310Z,1003.43
2017-03-29T02:20:31.338Z,1003.43
2017-03-29T02:21:31.363Z,1003.42
2017-03-29T02:22:31.392Z,1003.36
2017-03-29T02:23:31.421Z,1003.39
2017-03-29T02:24:31.451Z,1003.41
2017-03-29T02:25:31.473Z,1003.45
2017-03-29T02:26:31.502Z,1003.47
2017-03-29T02:27:31.528Z,1003.48
2017-03-29T02:28:31.561Z,1003.44
2017-03-29T02:29:31.588Z,1003.48
2017-03-29T02:30:31.616Z,1003.49
2017-03-29T02:31:31.646Z,1003.56
2017-03-29T02:32:31.673Z,1003.48
2017-03-29T02:33:31.697Z,1003.49
2017-03-29T02:34:31.726Z,1003.52
2017-03-29T02:35:31.755Z,1003.49
2017-03-29T02:36:31.778Z,1003.47
2017-03-29T02:37:31.805Z,1003.48
2017-03-29T02:38:31.836Z,1003.48
2017-03-29T02:39:31.865Z,1003.5
2017-03-29T02:40:31.895Z,1003.5
2017-03-29T02:41:31.917Z,1003.51
2017-03-29T02:42:31.947Z,1003.52
2017-03-29T02:43:31.978Z,1003.49
2017-03-29T02:44:32.003Z,1003.47
2017-03-29T02:45:32.030Z,1003.47
2017-03-29T02:46:32.058Z,1003.51
2017-03-29T02:47:32.087Z,1003.49
2017-03-29T02:48:32.116Z,1003.52
2017-03-29T02:49:32.145Z,1003.47
2017-03-29T02:50:32.169Z,1003.44
2017-03-29T02:51:32.197Z,1003.43
2017-03-29T02:52:32.222Z,1003.47
2017-03-29T02:53:32.251Z,1003.49
2017-03-29T02:54:32.280Z,1003.48
2017-03-29T02:55:32.309Z,1003.48
2017-03-29T02:56:32.337Z,1003.49
2017-03-29T02:57:32.361Z,1003.52
2017-03-29T02:58:32.392Z,1003.49
2017-03-29T02:59:32.421Z,1003.52
2017-03-29T03:00:32.449Z,1003.52
2017-03-29T03:01:32.474Z,1003.49
2017-03-29T03:02:32.502Z,1003.51
2017-03-29T03:03:32.531Z,1003.51
2017-03-29T03:04:32.556Z,1003.52
2017-03-29T03:05:32.585Z,1003.51
2017-03-29T03:06:32.612Z,1003.55
2017-03-29T03:07:32.638Z,1003.57
2017-03-29T03:08:32.667Z,1003.55
2017-03-29T03:09:32.696Z,1003.55
2017-03-29T03:10:32.726Z,1003.54
2017-03-29T03:11:32.749Z,1003.57
2017-03-29T03:12:32.777Z,1003.57
2017-03-29T03:13:32.807Z,1003.57
2017-03-29T03:14:32.831Z,1003.59
2017-03-29T03:15:32.860Z,1003.59
2017-03-29T03:16:32.887Z,1003.55
2017-03-29T03:17:33.165Z,1003.57
2017-03-29T03:18:32.943Z,1003.57
2017-03-29T03:19:32.972Z,1003.56
2017-03-29T03:20:32.999Z,1003.57
2017-03-29T03:21:33.027Z,1003.58
2017-03-29T03:22:33.304Z,1003.55
2017-03-29T03:23:33.083Z,1003.57
2017-03-29T03:24:33.112Z,1003.58
2017-03-29T03:25:33.136Z,1003.57
2017-03-29T03:26:33.164Z,1003.61
2017-03-29T03:27:33.444Z,1003.59
2017-03-29T03:28:33.222Z,1003.57
2017-03-29T03:29:33.247Z,1003.59
2017-03-29T03:30:33.275Z,1003.57
2017-03-29T03:31:33.304Z,1003.61
2017-03-29T03:32:33.580Z,1003.61
2017-03-29T03:33:33.357Z,1003.6
2017-03-29T03:34:33.383Z,1003.62
2017-03-29T03:35:33.440Z,1003.61
2017-03-29T03:36:33.441Z,1003.59
2017-03-29T03:37:33.720Z,1003.62
2017-03-29T03:38:33.493Z,1003.61
2017-03-29T03:39:33.522Z,1003.64
2017-03-29T03:40:33.551Z,1003.61
2017-03-29T03:41:33.573Z,1003.65
2017-03-29T03:42:33.855Z,1003.68
2017-03-29T03:43:33.633Z,1003.67
2017-03-29T03:44:33.662Z,1003.7
2017-03-29T03:45:33.687Z,1003.69
2017-03-29T03:46:33.716Z,1003.71
2017-03-29T03:47:33.745Z,1003.74
2017-03-29T03:48:33.774Z,1003.72
2017-03-29T03:49:33.799Z,1003.73
2017-03-29T03:50:33.826Z,1003.78
2017-03-29T03:51:33.856Z,1003.79
2017-03-29T03:52:33.880Z,1003.76
2017-03-29T03:53:33.913Z,1003.76
2017-03-29T03:54:33.938Z,1003.74
2017-03-29T03:55:33.967Z,1003.76
2017-03-29T03:56:33.991Z,1003.73
2017-03-29T03:57:34.021Z,1003.79
2017-03-29T03:58:34.052Z,1003.76
2017-03-29T03:59:34.074Z,1003.82
2017-03-29T04:00:34.103Z,1003.81
2017-03-29T04:01:34.135Z,1003.79
2017-03-29T04:02:34.156Z,1003.79
2017-03-29T04:03:34.184Z,1003.81
2017-03-29T04:04:34.212Z,1003.77
2017-03-29T04:05:34.238Z,1003.8
2017-03-29T04:06:34.267Z,1003.81
2017-03-29T04:07:34.295Z,1003.79
2017-03-29T04:08:34.320Z,1003.79
2017-03-29T04:09:34.348Z,1003.82
2017-03-29T04:10:34.382Z,1003.82
2017-03-29T04:11:34.403Z,1003.81
2017-03-29T04:12:34.430Z,1003.8
2017-03-29T04:13:34.459Z,1003.8
2017-03-29T04:14:34.483Z,1003.77
2017-03-29T04:15:34.513Z,1003.76
2017-03-29T04:16:34.541Z,1003.76
2017-03-29T04:17:34.571Z,1003.76
2017-03-29T04:18:34.595Z,1003.76
2017-03-29T04:19:34.623Z,1003.75
2017-03-29T04:20:34.652Z,1003.75
2017-03-29T04:21:34.677Z,1003.72
2017-03-29T04:22:34.707Z,1003.74
2017-03-29T04:23:34.736Z,1003.7
2017-03-29T04:24:34.766Z,1003.74
2017-03-29T04:25:34.786Z,1003.74
2017-03-29T04:26:34.818Z,1003.68
2017-03-29T04:27:34.846Z,1003.71
2017-03-29T04:28:34.871Z,1003.72
2017-03-29T04:29:34.901Z,1003.71
2017-03-29T04:30:34.926Z,1003.71
2017-03-29T04:31:34.953Z,1003.71
2017-03-29T04:32:34.982Z,1003.72
2017-03-29T04:33:35.011Z,1003.71
2017-03-29T04:34:35.035Z,1003.71
2017-03-29T04:35:35.065Z,1003.73
2017-03-29T04:36:35.090Z,1003.77
2017-03-29T04:37:35.118Z,1003.76
2017-03-29T04:38:35.146Z,1003.79
2017-03-29T04:39:35.174Z,1003.8
2017-03-29T04:40:35.200Z,1003.82
2017-03-29T04:41:35.229Z,1003.83
2017-03-29T04:42:35.257Z,1003.85
2017-03-29T04:43:35.283Z,1003.83
2017-03-29T04:44:35.311Z,1003.85
2017-03-29T04:45:35.339Z,1003.86
2017-03-29T04:46:35.365Z,1003.84
2017-03-29T04:47:35.394Z,1003.86
2017-03-29T04:48:35.415Z,1003.88
2017-03-29T04:49:35.447Z,1003.86
2017-03-29T04:50:35.476Z,1003.85
2017-03-29T04:51:35.502Z,1003.83
2017-03-29T04:52:35.529Z,1003.84
2017-03-29T04:53:35.558Z,1003.83
2017-03-29T04:54:35.582Z,1003.82
2017-03-29T04:55:35.611Z,1003.77
2017-03-29T04:56:35.640Z,1003.82
2017-03-29T04:57:35.668Z,1003.82
2017-03-29T04:58:35.693Z,1003.83
2017-03-29T04:59:35.723Z,1003.83
2017-03-29T05:00:35.747Z,1003.82
2017-03-29T05:01:35.776Z,1003.87
2017-03-29T05:02:35.806Z,1003.87
2017-03-29T05:03:35.828Z,1003.9
2017-03-29T05:04:35.858Z,1003.89
2017-03-29T05:05:35.886Z,1003.94
2017-03-29T05:06:35.904Z,1003.93
2017-03-29T05:07:35.940Z,1003.93
2017-03-29T05:08:36.222Z,1003.88
2017-03-29T05:09:35.994Z,1003.87
2017-03-29T05:10:36.023Z,1003.88
2017-03-29T05:11:36.051Z,1003.88
2017-03-29T05:12:36.074Z,1003.9
2017-03-29T05:13:36.353Z,1003.93
2017-03-29T05:14:36.130Z,1003.92
2017-03-29T05:15:36.159Z,1003.93
2017-03-29T05:16:36.187Z,1003.92
2017-03-29T05:17:36.216Z,1003.92
2017-03-29T05:18:36.493Z,1003.93
2017-03-29T05:19:36.282Z,1003.92
2017-03-29T05:20:36.294Z,1003.9
2017-03-29T05:21:36.324Z,1003.9
2017-03-29T05:22:36.347Z,1003.89
2017-03-29T05:23:36.627Z,1003.86
2017-03-29T05:24:36.403Z,1003.87
2017-03-29T05:25:36.434Z,1003.85
2017-03-29T05:26:36.454Z,1003.83
2017-03-29T05:27:36.484Z,1003.86
2017-03-29T05:28:36.755Z,1003.86
2017-03-29T05:29:36.536Z,1003.85
2017-03-29T05:30:36.565Z,1003.9
2017-03-29T05:31:36.590Z,1003.93
2017-03-29T05:32:36.620Z,1003.89
2017-03-29T05:33:36.895Z,1003.9
2017-03-29T05:34:36.673Z,1003.93
2017-03-29T05:35:36.697Z,1003.96
2017-03-29T05:36:36.725Z,1003.97
2017-03-29T05:37:36.751Z,1003.97
2017-03-29T05:38:36.780Z,1003.98
2017-03-29T05:39:36.805Z,1004.02
2017-03-29T05:40:36.837Z,1003.97
2017-03-29T05:41:36.872Z,1004.02
2017-03-29T05:42:36.886Z,1004.03
2017-03-29T05:43:36.911Z,1004.02
2017-03-29T05:44:36.936Z,1004.02
2017-03-29T05:45:36.969Z,1004.05
2017-03-29T05:46:36.994Z,1004.01
2017-03-29T05:47:37.019Z,1004.02
2017-03-29T05:48:37.048Z,1004.05
2017-03-29T05:49:37.071Z,1004.08
2017-03-29T05:50:37.100Z,1004.09
2017-03-29T05:51:37.129Z,1004.11
2017-03-29T05:52:37.153Z,1004.07
2017-03-29T05:53:37.179Z,1004.07
2017-03-29T05:54:37.209Z,1004.06
2017-03-29T05:55:37.239Z,1004.07
2017-03-29T05:56:37.262Z,1004.08
2017-03-29T05:57:37.284Z,1004.09
2017-03-29T05:58:37.320Z,1004.11
2017-03-29T05:59:37.343Z,1004.11
2017-03-29T06:00:37.369Z,1004.12
2017-03-29T06:01:37.397Z,1004.09
2017-03-29T06:02:37.425Z,1004.14
2017-03-29T06:03:37.450Z,1004.16
2017-03-29T06:04:37.479Z,1004.16
2017-03-29T06:05:37.503Z,1004.2
2017-03-29T06:06:37.529Z,1004.22
2017-03-29T06:07:37.558Z,1004.23
2017-03-29T06:08:37.586Z,1004.21
2017-03-29T06:09:37.615Z,1004.21
2017-03-29T06:10:37.640Z,1004.22
2017-03-29T06:11:37.669Z,1004.22
2017-03-29T06:12:37.693Z,1004.23
2017-03-29T06:13:37.722Z,1004.23
2017-03-29T06:14:37.745Z,1004.23
2017-03-29T06:15:37.771Z,1004.22
2017-03-29T06:16:37.801Z,1004.2
2017-03-29T06:17:37.829Z,1004.14
2017-03-29T06:18:37.853Z,1004.17
2017-03-29T06:19:37.882Z,1004.18
2017-03-29T06:20:37.911Z,1004.21
2017-03-29T06:21:37.936Z,1004.22
2017-03-29T06:22:37.965Z,1004.2
2017-03-29T06:23:37.992Z,1004.22
2017-03-29T06:24:38.016Z,1004.17
2017-03-29T06:25:38.046Z,1004.21
2017-03-29T06:26:38.071Z,1004.19
2017-03-29T06:27:38.099Z,1004.19
2017-03-29T06:28:38.125Z,1004.23
2017-03-29T06:29:38.153Z,1004.2
2017-03-29T06:30:38.178Z,1004.23
2017-03-29T06:31:38.203Z,1004.22
2017-03-29T06:32:38.236Z,1004.22
2017-03-29T06:33:38.260Z,1004.26
2017-03-29T06:34:38.289Z,1004.24
2017-03-29T06:35:38.314Z,1004.26
2017-03-29T06:36:38.343Z,1004.29
2017-03-29T06:37:38.367Z,1004.25
2017-03-29T06:38:38.396Z,1004.28
2017-03-29T06:39:38.421Z,1004.35
2017-03-29T06:40:38.450Z,1004.29
2017-03-29T06:41:38.475Z,1004.3
2017-03-29T06:42:38.503Z,1004.3
2017-03-29T06:43:38.532Z,1004.31
2017-03-29T06:44:38.556Z,1004.29
2017-03-29T06:45:38.585Z,1004.29
2017-03-29T06:46:38.614Z,1004.34
2017-03-29T06:47:38.641Z,1004.34
2017-03-29T06:48:38.667Z,1004.33
2017-03-29T06:49:38.693Z,1004.36
2017-03-29T06:50:38.726Z,1004.34
2017-03-29T06:51:38.747Z,1004.36
2017-03-29T06:52:38.774Z,1004.33
2017-03-29T06:53:38.805Z,1004.3
2017-03-29T06:54:38.828Z,1004.34
2017-03-29T06:55:38.857Z,1004.36
2017-03-29T06:56:38.883Z,1004.41
2017-03-29T06:57:38.912Z,1004.41
2017-03-29T06:58:38.939Z,1004.4
2017-03-29T06:59:38.959Z,1004.43
2017-03-29T07:00:38.994Z,1004.41
2017-03-29T07:01:39.017Z,1004.39
2017-03-29T07:02:39.047Z,1004.39
2017-03-29T07:03:39.082Z,1004.4
2017-03-29T07:04:39.164Z,1004.37
2017-03-29T07:05:39.149Z,1004.36
2017-03-29T07:06:39.154Z,1004.38
2017-03-29T07:07:39.181Z,1004.36
2017-03-29T07:08:39.209Z,1004.42
2017-03-29T07:09:39.236Z,1004.42
2017-03-29T07:10:39.264Z,1004.44
2017-03-29T07:11:39.289Z,1004.46
2017-03-29T07:12:39.317Z,1004.49
2017-03-29T07:13:39.343Z,1004.49
2017-03-29T07:14:39.371Z,1004.48
2017-03-29T07:15:39.400Z,1004.5
2017-03-29T07:16:39.421Z,1004.52
2017-03-29T07:17:39.450Z,1004.52
2017-03-29T07:18:39.479Z,1004.51
2017-03-29T07:19:39.507Z,1004.54
2017-03-29T07:20:39.532Z,1004.52
2017-03-29T07:21:39.556Z,1004.58
2017-03-29T07:22:39.590Z,1004.57
2017-03-29T07:23:39.614Z,1004.56
2017-03-29T07:24:39.644Z,1004.58
2017-03-29T07:25:39.664Z,1004.62
2017-03-29T07:26:39.697Z,1004.56
2017-03-29T07:27:39.725Z,1004.54
2017-03-29T07:28:39.745Z,1004.57
2017-03-29T07:29:39.778Z,1004.62
2017-03-29T07:30:39.803Z,1004.6
2017-03-29T07:31:39.833Z,1004.58
2017-03-29T07:32:39.857Z,1004.56
2017-03-29T07:33:39.889Z,1004.71
2017-03-29T07:34:39.915Z,1004.75
2017-03-29T07:35:39.943Z,1004.77
2017-03-29T07:36:39.967Z,1004.78
2017-03-29T07:37:39.996Z,1004.77
2017-03-29T07:38:40.026Z,1004.75
2017-03-29T07:39:40.051Z,1004.73
2017-03-29T07:40:40.078Z,1004.64
2017-03-29T07:41:40.108Z,1004.61
2017-03-29T07:42:40.136Z,1004.7
2017-03-29T07:43:40.157Z,1004.73
2017-03-29T07:44:40.190Z,1004.71
2017-03-29T07:45:40.218Z,1004.73
2017-03-29T07:46:40.246Z,1004.74
2017-03-29T07:47:40.275Z,1004.71
2017-03-29T07:48:40.300Z,1004.73
2017-03-29T07:49:40.580Z,1004.7
2017-03-29T07:50:40.358Z,1004.77
2017-03-29T07:51:40.385Z,1004.86
2017-03-29T07:52:40.415Z,1004.89
2017-03-29T07:53:40.444Z,1004.86
2017-03-29T07:54:40.724Z,1004.85
2017-03-29T07:55:40.497Z,1004.87
2017-03-29T07:56:40.528Z,1004.87
2017-03-29T07:57:40.555Z,1004.83
2017-03-29T07:58:40.584Z,1004.92
2017-03-29T07:59:40.866Z,1004.88
2017-03-29T08:00:40.642Z,1004.89
2017-03-29T08:01:40.669Z,1004.97
2017-03-29T08:02:40.699Z,1004.93
2017-03-29T08:03:40.725Z,1004.97
2017-03-29T08:04:41.005Z,1004.96
2017-03-29T08:05:40.781Z,1004.98
2017-03-29T08:06:40.811Z,1005.02
2017-03-29T08:07:40.840Z,1005.08
2017-03-29T08:08:40.864Z,1005.06
2017-03-29T08:09:41.144Z,1005.06
2017-03-29T08:10:40.923Z,1005.08
2017-03-29T08:11:40.950Z,1005.07
2017-03-29T08:12:40.979Z,1005.08
2017-03-29T08:13:41.010Z,1005.07
2017-03-29T08:14:41.284Z,1005.06
2017-03-29T08:15:41.062Z,1005.04
2017-03-29T08:16:41.089Z,1005.08
2017-03-29T08:17:41.118Z,1005.11
2017-03-29T08:18:41.146Z,1005.07
2017-03-29T08:19:41.424Z,1005.09
2017-03-29T08:20:41.201Z,1005.07
2017-03-29T08:21:41.232Z,1004.96
2017-03-29T08:22:41.259Z,1004.95
2017-03-29T08:23:41.287Z,1004.98
2017-03-29T08:24:41.558Z,1004.98
2017-03-29T08:25:41.345Z,1004.99
2017-03-29T08:26:41.369Z,1005
2017-03-29T08:27:41.396Z,1005.03
2017-03-29T08:28:41.430Z,1005.04
2017-03-29T08:29:41.698Z,1005.02
2017-03-29T08:30:41.484Z,1005.01
2017-03-29T08:31:41.510Z,1005.03
2017-03-29T08:32:41.538Z,1005.07
2017-03-29T08:33:41.566Z,1005.06
2017-03-29T08:34:41.839Z,1005.01
2017-03-29T08:35:41.621Z,1005.03
2017-03-29T08:36:41.644Z,1004.99
2017-03-29T08:37:41.673Z,1004.98
2017-03-29T08:38:41.702Z,1005.03
2017-03-29T08:39:41.979Z,1005.02
2017-03-29T08:40:41.758Z,1005.03
2017-03-29T08:41:41.787Z,1004.97
2017-03-29T08:42:41.812Z,1005
2017-03-29T08:43:41.842Z,1005.03
2017-03-29T08:44:41.871Z,1005.05
2017-03-29T08:45:41.900Z,1005.02
2017-03-29T08:46:41.923Z,1005.04
2017-03-29T08:47:41.952Z,1005.05
2017-03-29T08:48:41.981Z,1005.02
2017-03-29T08:49:42.009Z,1005.08
2017-03-29T08:50:42.036Z,1005.05
2017-03-29T08:51:42.059Z,1005.05
2017-03-29T08:52:42.096Z,1005.07
2017-03-29T08:53:42.123Z,1005.09
2017-03-29T08:54:42.151Z,1005.1
2017-03-29T08:55:42.175Z,1005.15
2017-03-29T08:56:42.199Z,1005.17
2017-03-29T08:57:42.230Z,1005.19
2017-03-29T08:58:42.262Z,1005.22
2017-03-29T08:59:42.287Z,1005.19
2017-03-29T09:00:42.314Z,1005.18
2017-03-29T09:01:42.343Z,1005.16
2017-03-29T09:02:42.373Z,1005.16
2017-03-29T09:03:42.398Z,1005.14
2017-03-29T09:04:42.430Z,1005.17
2017-03-29T09:05:42.459Z,1005.15
2017-03-29T09:06:42.480Z,1005.15
2017-03-29T09:07:42.532Z,1005.15
2017-03-29T09:08:42.532Z,1005.14
2017-03-29T09:09:42.566Z,1005.16
2017-03-29T09:10:42.594Z,1005.17
2017-03-29T09:11:42.619Z,1005.23
2017-03-29T09:12:42.651Z,1005.18
2017-03-29T09:13:42.676Z,1005.11
2017-03-29T09:14:42.705Z,1005.19
2017-03-29T09:15:42.734Z,1005.11
2017-03-29T09:16:42.762Z,1005.12
2017-03-29T09:17:42.790Z,1005.09
2017-03-29T09:18:42.818Z,1005.13
2017-03-29T09:19:42.846Z,1005.1
2017-03-29T09:20:42.873Z,1005.07
2017-03-29T09:21:42.904Z,1005.07
2017-03-29T09:22:42.932Z,1005.06
2017-03-29T09:23:42.959Z,1005.08
2017-03-29T09:24:42.990Z,1005.13
2017-03-29T09:25:43.013Z,1005.04
2017-03-29T09:26:43.043Z,1005
2017-03-29T09:27:43.071Z,1005.01
2017-03-29T09:28:43.099Z,1005.03
2017-03-29T09:29:43.129Z,1005.08
2017-03-29T09:30:43.158Z,1005.02
2017-03-29T09:31:43.186Z,1005
2017-03-29T09:32:43.212Z,1005
2017-03-29T09:33:43.240Z,1005.06
2017-03-29T09:34:43.268Z,1005.08
2017-03-29T09:35:43.298Z,1004.88
2017-03-29T09:36:43.327Z,1004.99
2017-03-29T09:37:43.355Z,1005.02
2017-03-29T09:38:43.384Z,1005.06
2017-03-29T09:39:43.414Z,1005.05
2017-03-29T09:40:43.436Z,1005.01
2017-03-29T09:41:43.471Z,1005
2017-03-29T09:42:43.493Z,1005.03
2017-03-29T09:43:43.523Z,1005.09
2017-03-29T09:44:43.552Z,1005.07
2017-03-29T09:45:43.580Z,1004.99
2017-03-29T09:46:43.610Z,1004.99
2017-03-29T09:47:43.638Z,1005
2017-03-29T09:48:43.666Z,1005.02
2017-03-29T09:49:43.696Z,1005.01
2017-03-29T09:50:43.724Z,1005.07
2017-03-29T09:51:43.753Z,1005.08
2017-03-29T09:52:43.782Z,1005.05
2017-03-29T09:53:43.810Z,1004.99
2017-03-29T09:54:43.836Z,1005.06
2017-03-29T09:55:43.865Z,1005.08
2017-03-29T09:56:43.893Z,1005.05
2017-03-29T09:57:43.922Z,1005.02
2017-03-29T09:58:43.949Z,1005.04
2017-03-29T09:59:43.980Z,1004.99
2017-03-29T10:00:44.009Z,1004.94
2017-03-29T10:01:44.035Z,1004.97
2017-03-29T10:02:44.066Z,1004.99
2017-03-29T10:03:44.094Z,1004.96
2017-03-29T10:04:44.119Z,1004.88
2017-03-29T10:05:44.147Z,1004.97
2017-03-29T10:06:44.176Z,1004.95
2017-03-29T10:07:44.206Z,1004.92
2017-03-29T10:08:44.231Z,1004.95
2017-03-29T10:09:44.265Z,1004.94
2017-03-29T10:10:44.292Z,1004.88
2017-03-29T10:11:44.320Z,1004.96
2017-03-29T10:12:44.349Z,1005
2017-03-29T10:13:44.376Z,1004.97
2017-03-29T10:14:44.406Z,1004.94
2017-03-29T10:15:44.436Z,1004.91
2017-03-29T10:16:44.461Z,1004.97
2017-03-29T10:17:44.489Z,1004.94
2017-03-29T10:18:44.518Z,1004.92
2017-03-29T10:19:44.547Z,1004.92
2017-03-29T10:20:44.576Z,1004.86
2017-03-29T10:21:44.605Z,1004.91
2017-03-29T10:22:44.633Z,1004.9
2017-03-29T10:23:44.661Z,1004.86
2017-03-29T10:24:44.691Z,1004.89
2017-03-29T10:25:44.720Z,1004.85
2017-03-29T10:26:44.749Z,1004.87
2017-03-29T10:27:44.775Z,1004.85
2017-03-29T10:28:44.801Z,1004.88
2017-03-29T10:29:44.836Z,1004.89
2017-03-29T10:30:44.864Z,1004.81
2017-03-29T10:31:44.883Z,1004.79
2017-03-29T10:32:44.920Z,1004.76
2017-03-29T10:33:44.946Z,1004.82
2017-03-29T10:34:44.974Z,1004.79
2017-03-29T10:35:45.003Z,1004.79
2017-03-29T10:36:45.032Z,1004.73
2017-03-29T10:37:45.064Z,1004.77
2017-03-29T10:38:45.083Z,1004.72
2017-03-29T10:39:45.118Z,1004.73
2017-03-29T10:40:45.397Z,1004.72
2017-03-29T10:41:45.176Z,1004.76
2017-03-29T10:42:45.204Z,1004.7
2017-03-29T10:43:45.241Z,1004.7
2017-03-29T10:44:45.262Z,1004.66
2017-03-29T10:45:45.538Z,1004.62
2017-03-29T10:46:45.317Z,1004.76
2017-03-29T10:47:45.347Z,1004.75
2017-03-29T10:48:45.377Z,1004.71
2017-03-29T10:49:45.404Z,1004.7
2017-03-29T10:50:45.683Z,1004.65
2017-03-29T10:51:45.463Z,1004.69
2017-03-29T10:52:45.486Z,1004.71
2017-03-29T10:53:45.519Z,1004.69
2017-03-29T10:54:45.553Z,1004.69
2017-03-29T10:55:45.825Z,1004.68
2017-03-29T10:56:45.606Z,1004.66
2017-03-29T10:57:45.630Z,1004.65
2017-03-29T10:58:45.664Z,1004.62
2017-03-29T10:59:45.691Z,1004.58
2017-03-29T11:00:45.972Z,1004.57
2017-03-29T11:01:45.750Z,1004.61
2017-03-29T11:02:45.779Z,1004.6
2017-03-29T11:03:45.808Z,1004.53
2017-03-29T11:04:45.836Z,1004.53
2017-03-29T11:05:45.870Z,1004.55
2017-03-29T11:06:45.894Z,1004.58
2017-03-29T11:07:45.923Z,1004.52
2017-03-29T11:08:45.952Z,1004.58
2017-03-29T11:09:45.981Z,1004.54
2017-03-29T11:10:46.009Z,1004.53
2017-03-29T11:11:46.042Z,1004.6
2017-03-29T11:12:46.062Z,1004.62
2017-03-29T11:13:46.095Z,1004.57
2017-03-29T11:14:46.122Z,1004.63
2017-03-29T11:15:46.153Z,1004.61
2017-03-29T11:16:46.185Z,1004.64
2017-03-29T11:17:46.214Z,1004.64
2017-03-29T11:18:46.242Z,1004.7
2017-03-29T11:19:46.271Z,1004.67
2017-03-29T11:20:46.304Z,1004.66
2017-03-29T11:21:46.329Z,1004.65
2017-03-29T11:22:46.362Z,1004.64
2017-03-29T11:23:46.386Z,1004.72
2017-03-29T11:24:46.416Z,1004.65
2017-03-29T11:25:46.438Z,1004.66
2017-03-29T11:26:46.472Z,1004.64
2017-03-29T11:27:46.501Z,1004.65
2017-03-29T11:28:46.533Z,1004.64
2017-03-29T11:29:46.554Z,1004.68
2017-03-29T11:30:46.583Z,1004.71
2017-03-29T11:31:46.616Z,1004.62
2017-03-29T11:32:46.650Z,1004.63
2017-03-29T11:33:46.674Z,1004.73
2017-03-29T11:34:46.710Z,1004.82
2017-03-29T11:35:46.741Z,1004.76
2017-03-29T11:36:46.765Z,1004.78
2017-03-29T11:37:46.793Z,1004.87
2017-03-29T11:38:46.817Z,1004.89
2017-03-29T11:39:46.850Z,1004.97
2017-03-29T11:40:46.879Z,1004.96
2017-03-29T11:41:46.904Z,1004.87
2017-03-29T11:42:46.936Z,1004.79
2017-03-29T11:43:46.965Z,1004.74
2017-03-29T11:44:46.989Z,1004.68
2017-03-29T11:45:47.023Z,1004.71
2017-03-29T11:46:47.052Z,1004.76
2017-03-29T11:47:47.085Z,1004.8
2017-03-29T11:48:47.112Z,1004.72
2017-03-29T11:49:47.141Z,1004.74
2017-03-29T11:50:47.170Z,1004.72
2017-03-29T11:51:47.199Z,1004.8
2017-03-29T11:52:47.229Z,1004.8
2017-03-29T11:53:47.257Z,1004.9
2017-03-29T11:54:47.291Z,1004.86
2017-03-29T11:55:47.319Z,1004.8
2017-03-29T11:56:47.343Z,1004.82
2017-03-29T11:57:47.375Z,1004.77
2017-03-29T11:58:47.405Z,1004.79
2017-03-29T11:59:47.438Z,1004.83
2017-03-29T12:00:47.467Z,1004.85
2017-03-29T12:01:47.498Z,1004.81
2017-03-29T12:02:47.524Z,1004.86
2017-03-29T12:03:47.557Z,1004.85
2017-03-29T12:04:47.589Z,1004.87
2017-03-29T12:05:47.618Z,1004.89
2017-03-29T12:06:47.647Z,1004.95
2017-03-29T12:07:47.686Z,1004.96
2017-03-29T12:08:47.707Z,1004.97